Main page
METAR-TAF:

METAR-TAF

Airports :

Marshfield Municipal Airport

Marshfield, Massachusetts, United States

latitude: 42-05-54N, longitude: 070-40-20W, elevation: 10 ft

Current weather observation

The report was made 28 minutes ago, at 21:15 UTC
Wind 9 mph from the North/Northeast with gusts up to 17 mph, varying between North/Northwest and East/Northeast
Temperature 43°F
Humidity 70%
Pressure 29.74 in. Hg
Visibility: 10 miles
Overcast at a height of 3400 ft

METAR: KGHG 012115Z AUTO 02008G15KT 330V060 10SM OVC034 06/01 A2974 RMK AO2

Time: 17:43 (21:43 UTC)


TAF: missing

Weather observations and forecasts of more than 4000 airports (METAR and TAF reports).

The available stations are represented by yellow and red dots on the map.

Hover mouse over dot to see the name of the station.

Then click to see weather observations and forecasts.

To change the map : click on the green buttons with a black cross to zoom in, on the green button with a dash to zoom out, or on the green arrows for adjacent maps.


METAR-TAF: